Terminal Aerodrome Forecast
Issued by NWS Goodland, KS

Home | Current Version | Previous Version | Text Only | Print | Product List | Glossary On
Versions: 1 2 3 4 5 6 7 8 9 10 11 12 13 14 15 16 17 18 19 20 21 22 23 24
000
FTUS43 KGLD 271442 AAB
TAFGLD
TAF AMD
KGLD 271442Z 2715/2812 18014KT P6SM BKN008 BKN100
      TEMPO 2715/2717 P6SM SCT008 BKN100
     FM271700 19015KT P6SM BKN040 BKN100
     FM280300 15010KT P6SM TSRA OVC060CB
     FM280800 30010KT P6SM VCTS OVC060CB
     FM281000 33010KT P6SM OVC060=

USA.gov is the U.S. government's official web portal to all federal, state and local government web resources and services.